Time;durP1;ratioP1;P1;durP2;ratioP2;P2;SDS_P1;SDS_P2;PMS_P1;PMS_P2;Temp;Humidity;BMP_temperature;BMP_pressure;BME280_temperature;BME280_humidity;BME280_pressure;Samples;Min_cycle;Max_cycle;Signal;HPM_P1;HPM_P2
2022/12/28 00:02:19;;;;;;;4.15;2.90;;;;;;;22.42;43.68;95920.78;5044022;28;20408;-63
2022/12/28 00:04:45;;;;;;;4.50;3.15;;;;;;;22.30;43.68;95910.25;5025370;28;20107;-64
2022/12/28 00:07:10;;;;;;;4.88;3.15;;;;;;;21.66;43.44;95849.25;5024575;28;20351;-63
2022/12/28 00:09:35;;;;;;;5.15;3.38;;;;;;;22.35;43.75;95904.88;5007992;28;20040;-63
2022/12/28 00:12:01;;;;;;;5.20;3.13;;;;;;;22.38;43.70;95903.91;5048047;28;20044;-63
2022/12/28 00:14:26;;;;;;;5.65;3.25;;;;;;;22.44;43.54;95921.03;5063950;28;20349;-63
2022/12/28 00:16:52;;;;;;;5.53;3.10;;;;;;;21.78;43.59;95818.22;5044075;28;20603;-63
2022/12/28 00:19:17;;;;;;;4.93;3.30;;;;;;;21.68;43.56;95814.91;5044932;28;20032;-63
2022/12/28 00:21:43;;;;;;;3.85;2.85;;;;;;;22.41;43.65;95924.72;5045656;28;20043;-63
2022/12/28 00:24:16;;;;;;;4.75;3.10;;;;;;;22.40;43.97;95928.66;5044110;28;20508;-63
2022/12/28 00:26:41;;;;;;;4.18;3.30;;;;;;;22.36;43.70;95922.72;5028606;28;20046;-63
2022/12/28 00:29:07;;;;;;;5.07;2.80;;;;;;;22.38;44.00;95931.13;5052026;28;20408;-63
2022/12/28 00:31:33;;;;;;;4.38;3.00;;;;;;;22.33;43.79;95936.50;5055852;28;20770;-63
2022/12/28 00:33:58;;;;;;;4.95;3.30;;;;;;;22.29;43.94;95928.56;5028233;28;20044;-63
2022/12/28 00:36:24;;;;;;;4.05;2.78;;;;;;;22.21;43.64;95916.63;5044284;28;20480;-62
2022/12/28 00:38:49;;;;;;;4.32;3.05;;;;;;;22.13;43.71;95909.31;5060175;28;20043;-63
2022/12/28 00:41:15;;;;;;;4.70;2.88;;;;;;;22.36;43.46;95944.47;5043300;28;20529;-63
2022/12/28 00:43:40;;;;;;;4.20;2.70;;;;;;;22.35;43.55;95940.25;5047822;28;20063;-62
2022/12/28 00:46:06;;;;;;;4.38;3.10;;;;;;;21.62;43.55;95837.81;5028039;28;21120;-62
2022/12/28 00:48:31;;;;;;;3.92;2.80;;;;;;;22.11;43.96;95923.41;5062045;28;20040;-62
2022/12/28 00:51:03;;;;;;;4.03;2.55;;;;;;;22.35;43.61;95948.41;5044454;28;20048;-62
2022/12/28 00:53:29;;;;;;;4.78;3.00;;;;;;;22.33;44.00;95967.19;5033055;28;20052;-62
2022/12/28 00:55:54;;;;;;;4.53;2.83;;;;;;;22.32;43.58;95952.09;5062154;28;20111;-63
2022/12/28 00:58:20;;;;;;;4.25;2.90;;;;;;;22.08;43.82;95918.91;5063361;28;20068;-63
2022/12/28 01:00:45;;;;;;;5.53;3.20;;;;;;;22.30;43.65;95962.72;5066781;28;20044;-62
2022/12/28 01:03:10;;;;;;;4.88;3.13;;;;;;;22.28;43.80;95959.72;5044705;28;20064;-61
2022/12/28 01:05:37;;;;;;;4.60;3.10;;;;;;;22.23;43.90;95968.56;5064598;28;20048;-62
2022/12/28 01:08:03;;;;;;;4.15;3.05;;;;;;;22.20;43.54;95980.38;5066758;28;20057;-62
2022/12/28 01:10:28;;;;;;;3.92;2.85;;;;;;;21.64;43.98;95857.88;5048213;28;20040;-62
2022/12/28 01:12:54;;;;;;;3.95;2.90;;;;;;;22.31;43.92;95947.88;5066039;28;20044;-62
2022/12/28 01:15:19;;;;;;;4.40;3.03;;;;;;;21.69;43.63;95864.59;5048547;28;20045;-63
2022/12/28 01:17:45;;;;;;;5.78;2.92;;;;;;;22.31;43.84;95947.88;5044845;28;20033;-63
2022/12/28 01:20:10;;;;;;;4.28;2.88;;;;;;;21.86;43.57;95900.88;5048265;28;20456;-63
2022/12/28 01:22:36;;;;;;;4.53;2.90;;;;;;;22.18;43.94;95944.75;5048315;28;20074;-62
2022/12/28 01:25:01;;;;;;;4.35;3.05;;;;;;;21.40;43.90;95821.22;5064879;28;20445;-62
2022/12/28 01:27:27;;;;;;;4.30;3.03;;;;;;;22.23;43.81;95946.81;5057171;28;20489;-62
2022/12/28 01:29:52;;;;;;;5.70;3.17;;;;;;;22.24;43.93;95948.31;5045951;28;20049;-63
2022/12/28 01:32:17;;;;;;;4.57;3.28;;;;;;;22.12;43.60;95935.78;5045732;28;20033;-62
2022/12/28 01:34:43;;;;;;;4.53;2.83;;;;;;;22.25;44.01;95965.38;5045801;28;20480;-62
2022/12/28 01:37:08;;;;;;;4.63;3.13;;;;;;;22.25;43.87;95977.00;5046289;28;20048;-63
2022/12/28 01:39:34;;;;;;;4.57;2.97;;;;;;;21.41;43.57;95844.47;5065310;28;20255;-63
2022/12/28 01:41:59;;;;;;;4.07;2.83;;;;;;;22.15;44.05;95940.28;5065724;28;20468;-63
2022/12/28 01:44:25;;;;;;;3.95;3.13;;;;;;;22.26;43.75;95945.09;5066447;28;20089;-63
2022/12/28 01:47:04;;;;;;;4.63;3.10;;;;;;;22.21;43.85;95943.06;5059497;28;20497;-63
2022/12/28 01:49:41;;;;;;;5.30;3.13;;;;;;;22.21;43.84;95952.00;5018533;28;20052;-62
2022/12/28 01:52:08;;;;;;;4.38;2.90;;;;;;;22.21;43.75;95949.28;5047675;28;20056;-62
2022/12/28 01:54:43;;;;;;;4.75;2.95;;;;;;;21.76;43.73;95880.47;5038982;28;20157;-63
2022/12/28 01:57:08;;;;;;;5.43;3.30;;;;;;;22.09;43.68;95925.84;5009884;28;20045;-63
2022/12/28 01:59:38;;;;;;;4.90;3.13;;;;;;;22.18;43.75;95939.31;5042426;28;20033;-63
2022/12/28 02:02:03;;;;;;;4.22;2.92;;;;;;;21.98;43.79;95909.41;5065948;28;20393;-63
2022/12/28 02:04:29;;;;;;;4.43;2.60;;;;;;;21.93;43.71;95895.75;5064999;28;20114;-63
2022/12/28 02:06:54;;;;;;;4.35;3.03;;;;;;;22.21;44.10;95932.94;5035341;28;20052;-62
2022/12/28 02:09:31;;;;;;;4.75;3.10;;;;;;;22.17;43.75;95918.75;5026025;28;20115;-63
2022/12/28 02:11:57;;;;;;;3.80;2.88;;;;;;;22.15;43.97;95923.94;5030976;28;20119;-63
2022/12/28 02:14:22;;;;;;;4.90;3.35;;;;;;;22.19;44.00;95940.78;5064914;28;20025;-63
2022/12/28 02:16:48;;;;;;;4.18;3.08;;;;;;;22.18;44.02;95931.16;5032936;28;20041;-62
2022/12/28 02:19:16;;;;;;;5.55;3.28;;;;;;;20.78;43.71;95716.31;4994831;28;20052;-62
2022/12/28 02:21:47;;;;;;;4.63;3.08;;;;;;;22.14;43.93;95922.44;5010803;28;20048;-62
2022/12/28 02:24:24;;;;;;;4.40;3.30;;;;;;;22.14;43.91;95932.59;5044452;28;20623;-63
2022/12/28 02:27:10;;;;;;;4.50;2.85;;;;;;;22.12;43.91;95908.59;5028368;28;20048;-62
2022/12/28 02:29:57;;;;;;;4.35;3.05;;;;;;;22.13;43.84;95910.06;5031881;28;20724;-63
2022/12/28 02:32:26;;;;;;;4.28;3.03;;;;;;;22.15;43.74;95902.19;5045391;28;20519;-62
2022/12/28 02:35:29;;;;;;;4.50;3.35;;;;;;;22.17;43.89;95899.72;5026083;28;20110;-62
2022/12/28 02:38:15;;;;;;;4.00;3.00;;;;;;;22.02;43.89;95882.75;5029019;28;20109;-63
2022/12/28 02:40:53;;;;;;;4.80;3.20;;;;;;;21.48;43.90;95801.34;5028002;28;20044;-63
2022/12/28 02:43:19;;;;;;;4.65;3.05;;;;;;;21.89;43.99;95872.72;5030453;28;20047;-63
2022/12/28 02:52:06;;;;;;;4.90;3.20;;;;;;;22.08;44.16;95902.59;5051179;28;20621;-63
2022/12/28 02:57:34;;;;;;;4.97;3.05;;;;;;;22.10;43.85;95889.25;5055538;28;20048;-63
2022/12/28 03:00:06;;;;;;;5.18;3.30;;;;;;;22.10;43.81;95889.25;5043710;28;20072;-63
2022/12/28 03:02:33;;;;;;;4.97;3.20;;;;;;;22.10;43.77;95886.53;5043516;28;20463;-62
2022/12/28 03:05:02;;;;;;;4.60;3.03;;;;;;;21.45;43.94;95794.16;5026347;28;20928;-62
2022/12/28 03:10:22;;;;;;;4.40;2.85;;;;;;;22.06;44.07;95888.75;5029054;28;20098;-62
2022/12/28 03:16:05;;;;;;;4.50;2.88;;;;;;;21.65;43.88;95850.47;5043248;28;20052;-62
2022/12/28 03:32:14;;;;;;;4.55;3.30;;;;;;;22.07;43.79;95906.53;5027144;28;20039;-62
2022/12/28 03:34:40;;;;;;;5.07;3.33;;;;;;;22.05;44.04;95914.44;5043827;28;20036;-62
2022/12/28 03:37:24;;;;;;;5.30;3.85;;;;;;;22.01;44.00;95930.19;5050240;28;20048;-62
2022/12/28 03:39:52;;;;;;;5.50;3.85;;;;;;;21.74;43.86;95875.53;5042157;28;20123;-63
2022/12/28 03:45:31;;;;;;;5.47;3.22;;;;;;;21.22;43.84;95794.34;5047270;28;20060;-62
2022/12/28 03:47:57;;;;;;;4.82;3.67;;;;;;;22.01;43.95;95913.88;5031485;28;20513;-63
2022/12/28 03:50:22;;;;;;;5.32;3.28;;;;;;;21.42;43.93;95843.25;5046164;28;20085;-63
2022/12/28 03:52:48;;;;;;;4.50;3.25;;;;;;;22.03;43.85;95895.13;5025838;28;20045;-62
2022/12/28 03:55:13;;;;;;;4.80;3.33;;;;;;;21.97;43.83;95886.16;5013861;28;20468;-63
2022/12/28 03:57:39;;;;;;;5.57;3.30;;;;;;;22.03;43.92;95900.56;4997085;28;20052;-63
2022/12/28 04:00:05;;;;;;;4.97;3.50;;;;;;;21.67;44.10;95842.56;5062397;28;20100;-62
2022/12/28 04:02:31;;;;;;;4.93;3.33;;;;;;;21.98;43.82;95887.66;5062696;28;20027;-62
2022/12/28 04:04:56;;;;;;;5.10;3.38;;;;;;;22.00;44.13;95889.88;5046027;28;20025;-63
2022/12/28 04:07:22;;;;;;;4.75;3.30;;;;;;;21.92;43.92;95884.13;5063282;28;20094;-62
2022/12/28 04:09:47;;;;;;;5.32;3.60;;;;;;;21.96;44.03;95892.81;5063099;28;20074;-63
2022/12/28 04:12:13;;;;;;;4.55;3.20;;;;;;;21.97;43.87;95899.75;5024691;28;20886;-63
2022/12/28 04:14:39;;;;;;;5.25;3.53;;;;;;;21.98;43.95;95893.09;5024120;28;20501;-62
2022/12/28 04:17:04;;;;;;;4.95;3.72;;;;;;;21.93;43.89;95887.59;5023179;28;20073;-62
2022/12/28 04:19:30;;;;;;;5.03;3.17;;;;;;;22.00;44.04;95889.88;5043540;28;20505;-63
2022/12/28 04:21:55;;;;;;;5.60;3.58;;;;;;;21.75;43.98;95857.22;5042944;28;20382;-64
2022/12/28 04:24:20;;;;;;;5.72;3.70;;;;;;;21.83;43.90;95880.81;5042758;28;20432;-63
2022/12/28 04:26:46;;;;;;;6.32;3.97;;;;;;;21.98;43.82;95903.22;5024837;28;20520;-63
2022/12/28 04:29:11;;;;;;;5.50;3.50;;;;;;;21.68;44.18;95873.97;5015040;28;20038;-63
2022/12/28 04:31:37;;;;;;;5.28;3.42;;;;;;;21.92;43.70;95911.31;5035346;28;20099;-63
2022/12/28 04:34:02;;;;;;;5.70;3.67;;;;;;;21.94;44.01;95930.63;5045081;28;20041;-63
2022/12/28 04:36:28;;;;;;;4.80;3.42;;;;;;;21.92;44.03;95923.44;5046466;28;20049;-63
2022/12/28 04:38:53;;;;;;;6.32;3.65;;;;;;;21.26;43.99;95822.06;5046202;28;20098;-63
2022/12/28 04:41:18;;;;;;;5.50;3.40;;;;;;;21.85;43.86;95926.56;5029186;28;20029;-63
2022/12/28 04:43:44;;;;;;;5.45;3.50;;;;;;;21.90;43.80;95925.88;5022834;28;20038;-64
2022/12/28 04:46:12;;;;;;;4.65;3.58;;;;;;;21.95;43.80;95932.13;5053267;28;20067;-63
2022/12/28 04:48:37;;;;;;;4.28;3.10;;;;;;;21.96;43.81;95939.06;5048451;28;20132;-63
2022/12/28 04:51:29;;;;;;;5.78;3.47;;;;;;;21.93;43.99;95942.72;5064707;28;20163;-63
2022/12/28 04:53:55;;;;;;;4.95;3.53;;;;;;;21.94;43.81;95930.63;5046063;28;20063;-63
2022/12/28 04:56:21;;;;;;;5.72;3.53;;;;;;;21.91;44.02;95930.81;5047653;28;20521;-63
2022/12/28 04:58:46;;;;;;;4.82;3.50;;;;;;;21.92;43.87;95935.03;5065209;28;20048;-63
2022/12/28 05:01:16;;;;;;;5.45;3.47;;;;;;;22.02;43.85;95942.59;5066234;28;20090;-64
2022/12/28 05:03:42;;;;;;;7.30;4.05;;;;;;;22.51;43.10;95942.38;5047953;28;20048;-63
2022/12/28 05:06:11;;;;;;;5.50;3.80;;;;;;;22.75;42.13;95931.94;5064696;28;20834;-63
2022/12/28 05:08:36;;;;;;;4.97;3.45;;;;;;;22.91;42.06;95924.66;5060473;28;20034;-63
2022/12/28 05:11:03;;;;;;;5.88;3.97;;;;;;;22.94;41.97;95907.38;5045846;28;20455;-63
2022/12/28 05:13:29;;;;;;;6.15;3.50;;;;;;;22.57;41.57;95845.94;5047852;28;20119;-65
2022/12/28 05:15:54;;;;;;;4.97;3.60;;;;;;;23.10;41.40;95904.00;5047566;28;20989;-64
2022/12/28 05:18:19;;;;;;;5.47;3.83;;;;;;;23.29;41.68;95926.94;5064718;28;20499;-64
2022/12/28 05:20:45;;;;;;;5.28;3.58;;;;;;;23.29;41.66;95916.03;5064004;28;20024;-64
2022/12/28 05:23:10;;;;;;;5.15;3.33;;;;;;;23.36;41.63;95931.19;5062975;28;20032;-64
2022/12/28 05:25:36;;;;;;;4.75;3.53;;;;;;;23.38;41.29;95924.00;5045468;28;20045;-63
2022/12/28 05:28:01;;;;;;;5.50;3.72;;;;;;;22.88;40.75;95849.38;5064605;28;20071;-63
2022/12/28 05:30:27;;;;;;;4.70;3.38;;;;;;;23.48;41.36;95922.56;5066396;28;20048;-63
2022/12/28 05:32:52;;;;;;;4.18;3.38;;;;;;;23.45;41.15;95934.44;5059873;28;20032;-64
2022/12/28 05:35:17;;;;;;;4.78;3.38;;;;;;;23.52;41.21;95947.63;5048454;28;20036;-64
2022/12/28 05:37:44;;;;;;;5.28;3.40;;;;;;;23.54;41.08;95947.88;5044477;28;20049;-64
2022/12/28 05:40:10;;;;;;;4.75;3.50;;;;;;;23.44;41.12;95932.97;5064174;28;20053;-62
2022/12/28 05:42:35;;;;;;;5.18;3.30;;;;;;;23.62;40.90;95943.47;5041403;28;20041;-63
2022/12/28 05:45:01;;;;;;;4.45;3.38;;;;;;;23.39;40.91;95914.59;5043241;28;20041;-63
2022/12/28 05:47:26;;;;;;;6.63;3.83;;;;;;;23.68;40.79;95947.00;5026692;28;20513;-63
2022/12/28 05:49:52;;;;;;;5.25;3.63;;;;;;;23.69;40.52;95953.94;5063466;28;20048;-63
2022/12/28 05:52:17;;;;;;;5.80;3.60;;;;;;;23.63;40.59;95934.03;5043970;28;20040;-63
2022/12/28 05:54:43;;;;;;;6.22;4.13;;;;;;;23.63;40.09;95934.03;5025296;28;20049;-63
2022/12/28 05:57:08;;;;;;;4.43;3.05;;;;;;;23.73;40.35;95971.56;5009027;28;20064;-64
2022/12/28 05:59:33;;;;;;;4.95;3.40;;;;;;;23.22;40.22;95883.03;5044668;28;20460;-64
2022/12/28 06:01:59;;;;;;;5.25;3.83;;;;;;;23.29;40.37;95883.34;5061423;28;20036;-62
2022/12/28 06:04:24;;;;;;;6.10;3.88;;;;;;;23.77;39.92;95955.72;5060099;28;20055;-63
2022/12/28 06:06:50;;;;;;;5.40;3.42;;;;;;;23.80;40.09;95962.19;5042648;28;20135;-64
2022/12/28 06:09:15;;;;;;;4.60;3.63;;;;;;;23.23;40.29;95885.28;5049430;28;20444;-63
2022/12/28 06:11:41;;;;;;;5.15;3.25;;;;;;;23.71;41.14;95973.31;5052951;28;20472;-62
2022/12/28 06:14:06;;;;;;;4.72;3.35;;;;;;;23.52;41.29;95951.09;5047544;28;20040;-63
2022/12/28 06:16:36;;;;;;;5.63;3.70;;;;;;;22.50;41.48;95856.50;5047013;28;20048;-65
2022/12/28 06:19:04;;;;;;;5.68;3.40;;;;;;;23.16;42.15;95983.81;5050000;28;20614;-63
2022/12/28 06:21:30;;;;;;;5.10;3.50;;;;;;;23.10;42.35;95974.84;5065589;28;20051;-64
2022/12/28 06:23:59;;;;;;;6.00;3.47;;;;;;;22.99;42.72;95966.59;5047371;28;20041;-64
2022/12/28 06:26:25;;;;;;;4.40;3.35;;;;;;;23.04;43.07;95982.22;5044140;28;20044;-65
2022/12/28 06:28:50;;;;;;;4.88;3.25;;;;;;;23.14;42.72;95972.66;5063547;28;20080;-66
2022/12/28 06:31:23;;;;;;;4.50;3.28;;;;;;;23.06;45.31;95963.44;5062016;28;20151;-65
2022/12/28 06:33:52;;;;;;;4.97;3.35;;;;;;;22.98;44.54;95959.66;5046749;28;20520;-63
2022/12/28 06:36:19;;;;;;;6.40;3.40;;;;;;;22.91;44.99;95970.97;5046079;28;20044;-65
2022/12/28 06:38:44;;;;;;;9.60;4.20;;;;;;;22.72;45.53;95992.81;5029603;28;20515;-62
2022/12/28 06:41:11;;;;;;;5.78;3.60;;;;;;;22.77;45.36;96001.03;5047451;28;20032;-63
2022/12/28 06:43:37;;;;;;;5.40;3.60;;;;;;;22.75;44.29;95980.97;5062229;28;20109;-64
2022/12/28 06:46:02;;;;;;;9.43;4.07;;;;;;;21.91;47.67;95832.94;5033413;28;20043;-65
2022/12/28 06:48:28;;;;;;;7.97;3.38;;;;;;;22.84;45.25;96010.75;5050556;28;20040;-64
2022/12/28 06:51:01;;;;;;;5.93;3.30;;;;;;;22.71;45.30;95985.88;5063324;28;20036;-63
2022/12/28 06:53:27;;;;;;;6.18;3.60;;;;;;;22.64;44.83;95980.84;5064203;28;20039;-66
2022/12/28 06:55:58;;;;;;;6.43;3.70;;;;;;;22.70;44.60;95978.94;5044960;28;20080;-64
2022/12/28 06:58:24;;;;;;;5.70;3.60;;;;;;;22.60;44.50;95972.16;5062222;28;20039;-63
2022/12/28 07:00:49;;;;;;;5.38;3.47;;;;;;;22.70;44.67;95984.38;5039242;28;20099;-62
2022/12/28 07:03:15;;;;;;;8.07;3.33;;;;;;;22.73;44.75;95988.88;5030409;28;20048;-64
2022/12/28 07:05:40;;;;;;;5.95;3.50;;;;;;;22.91;44.26;95983.81;5043352;28;20040;-65
2022/12/28 07:08:06;;;;;;;5.65;3.33;;;;;;;23.22;43.19;95976.44;5043448;28;20064;-63
2022/12/28 07:10:32;;;;;;;6.60;3.95;;;;;;;23.54;43.38;95975.91;5025781;28;20080;-66
2022/12/28 07:12:58;;;;;;;5.15;3.15;;;;;;;23.49;42.86;95962.25;5043219;28;20061;-66
2022/12/28 07:15:23;;;;;;;6.05;3.13;;;;;;;23.57;43.06;95968.72;5019916;28;20044;-65
2022/12/28 07:17:49;;;;;;;7.82;3.90;;;;;;;23.15;42.74;95889.69;5033219;28;20088;-63
2022/12/28 07:20:14;;;;;;;6.20;3.72;;;;;;;23.86;42.52;95975.34;5063044;28;20452;-64
2022/12/28 07:22:40;;;;;;;5.20;3.40;;;;;;;23.86;42.15;95969.91;5063800;28;20044;-63
2022/12/28 07:25:06;;;;;;;6.07;3.63;;;;;;;23.79;42.16;95953.25;5062517;28;20037;-64
2022/12/28 07:27:31;;;;;;;6.13;3.67;;;;;;;23.52;42.45;95884.94;5034932;28;20039;-64
2022/12/28 07:29:57;;;;;;;5.82;3.53;;;;;;;24.28;41.38;95978.00;5045773;28;20036;-65
2022/12/28 07:32:22;;;;;;;5.85;3.75;;;;;;;24.39;41.30;95978.81;5064287;28;20020;-65
2022/12/28 07:34:47;;;;;;;6.10;3.33;;;;;;;24.28;41.56;95967.09;5024360;28;20044;-65
2022/12/28 07:37:13;;;;;;;6.13;3.70;;;;;;;24.40;41.31;96002.13;5043447;28;20053;-64
2022/12/28 07:39:38;;;;;;;6.50;3.55;;;;;;;23.93;41.67;95917.59;5042690;28;20053;-66
2022/12/28 07:42:07;;;;;;;5.97;3.35;;;;;;;24.50;41.57;96010.88;5023331;28;20051;-64
2022/12/28 07:44:32;;;;;;;7.07;3.67;;;;;;;22.49;41.05;95691.72;5042508;28;20047;-62
2022/12/28 07:46:57;;;;;;;5.82;3.72;;;;;;;24.72;40.95;95999.97;5062909;28;20021;-66
2022/12/28 07:49:23;;;;;;;6.15;3.50;;;;;;;24.21;41.71;95923.16;5063867;28;20050;-66
2022/12/28 07:51:48;;;;;;;7.15;3.70;;;;;;;24.81;41.81;96003.22;5061115;28;20079;-66
2022/12/28 07:54:14;;;;;;;9.60;3.50;;;;;;;24.83;41.20;96001.50;5062549;28;20890;-64
2022/12/28 07:56:39;;;;;;;5.30;3.67;;;;;;;24.88;41.23;96003.47;5061877;28;20709;-62
2022/12/28 07:59:05;;;;;;;7.53;4.05;;;;;;;24.93;41.14;96005.50;5063362;28;20033;-64
2022/12/28 08:01:31;;;;;;;7.03;3.50;;;;;;;24.83;40.89;96006.97;5062412;28;20044;-62
2022/12/28 08:03:58;;;;;;;5.85;3.35;;;;;;;24.92;41.56;95982.13;5061954;28;20527;-64
2022/12/28 08:06:24;;;;;;;4.97;3.30;;;;;;;25.14;41.07;96009.50;5044244;28;20104;-66
2022/12/28 08:08:51;;;;;;;6.05;3.53;;;;;;;25.00;41.20;95977.69;5065529;28;21072;-64
2022/12/28 08:11:20;;;;;;;6.07;3.58;;;;;;;25.04;41.39;95980.91;5048326;28;20075;-64
2022/12/28 08:13:46;;;;;;;6.50;3.78;;;;;;;25.17;41.29;95996.81;5047823;28;20119;-64
2022/12/28 08:16:12;;;;;;;5.93;3.00;;;;;;;24.43;41.26;95891.19;5049502;28;20040;-64
2022/12/28 08:18:39;;;;;;;5.88;3.47;;;;;;;24.53;41.26;95906.13;5052650;28;20428;-64
2022/12/28 08:21:10;;;;;;;5.70;3.53;;;;;;;25.30;41.00;96000.53;5013683;28;20033;-64
2022/12/28 08:23:35;;;;;;;5.78;3.70;;;;;;;24.05;40.90;95810.00;5028649;28;20066;-64
2022/12/28 08:26:07;;;;;;;5.50;3.33;;;;;;;25.32;40.72;95989.88;5029281;28;20025;-65
2022/12/28 08:28:33;;;;;;;7.13;3.50;;;;;;;25.37;40.68;96000.06;5041296;28;20118;-64
2022/12/28 08:31:04;;;;;;;5.25;3.47;;;;;;;25.14;40.86;95949.38;5024798;28;20508;-62
2022/12/28 08:33:29;;;;;;;6.60;3.35;;;;;;;25.46;40.88;96008.00;5059393;28;20123;-65
2022/12/28 08:35:58;;;;;;;5.82;3.80;;;;;;;24.64;40.97;95876.81;5031102;28;20048;-67
2022/12/28 08:38:23;;;;;;;5.22;3.63;;;;;;;25.42;41.27;96012.97;5046275;28;20069;-69
2022/12/28 08:40:59;;;;;;;5.90;3.50;;;;;;;25.49;41.00;96029.63;5032080;28;20117;-67
2022/12/28 08:43:28;;;;;;;5.03;3.58;;;;;;;24.79;40.96;95906.63;5027193;28;20045;-66
2022/12/28 08:45:57;;;;;;;4.50;3.25;;;;;;;25.47;41.21;96015.72;5047187;28;20041;-68
2022/12/28 08:48:22;;;;;;;5.63;3.25;;;;;;;25.50;40.86;96003.00;5047272;28;20052;-66
2022/12/28 08:50:48;;;;;;;5.07;3.40;;;;;;;25.46;41.40;96013.47;5031270;28;20460;-67
2022/12/28 08:53:13;;;;;;;5.30;3.15;;;;;;;25.38;41.25;95990.59;5052053;28;20626;-68
2022/12/28 08:55:39;;;;;;;6.68;3.28;;;;;;;25.58;41.15;96014.94;5039013;28;20040;-64
2022/12/28 08:58:04;;;;;;;5.38;3.45;;;;;;;24.99;41.03;95927.00;5035559;28;20053;-65
2022/12/28 09:00:29;;;;;;;6.18;3.53;;;;;;;25.64;40.90;96007.47;5027667;28;20041;-64
2022/12/28 09:02:58;;;;;;;4.43;3.10;;;;;;;25.44;41.14;95986.63;5011905;28;20072;-65
2022/12/28 09:05:23;;;;;;;5.80;3.40;;;;;;;25.56;41.17;96020.16;5012673;28;20060;-67
2022/12/28 09:07:50;;;;;;;5.88;3.53;;;;;;;25.68;40.79;95986.84;5043827;28;20158;-65
2022/12/28 09:10:15;;;;;;;4.75;3.33;;;;;;;25.71;40.62;95998.78;5059884;28;20048;-64
2022/12/28 09:12:41;;;;;;;4.30;3.03;;;;;;;25.47;40.60;95943.81;5047822;28;20028;-62
2022/12/28 09:15:07;;;;;;;4.75;3.22;;;;;;;25.78;40.71;96001.00;5043321;28;20069;-62
2022/12/28 09:17:33;;;;;;;4.78;2.95;;;;;;;25.71;40.96;95974.16;5045333;28;20032;-63
2022/12/28 09:19:58;;;;;;;6.00;3.22;;;;;;;25.61;40.94;95987.34;5027866;28;20508;-62
2022/12/28 09:22:23;;;;;;;5.28;3.35;;;;;;;25.71;41.03;95971.41;5062050;28;20513;-65
2022/12/28 09:24:49;;;;;;;5.07;3.28;;;;;;;25.75;40.85;95974.66;5065671;28;20505;-63
2022/12/28 09:27:14;;;;;;;5.82;3.30;;;;;;;25.70;40.69;95983.63;5064894;28;20559;-65
2022/12/28 09:29:40;;;;;;;6.00;3.65;;;;;;;25.69;40.81;95965.69;5063731;28;20032;-64
2022/12/28 09:32:05;;;;;;;4.97;3.20;;;;;;;25.63;40.99;95952.00;5045968;28;20029;-64
2022/12/28 09:34:31;;;;;;;5.38;3.08;;;;;;;25.10;40.42;95853.19;5045225;28;20052;-63
2022/12/28 09:36:56;;;;;;;5.45;3.10;;;;;;;25.73;40.80;95971.69;5049717;28;20045;-63
2022/12/28 09:39:23;;;;;;;4.45;3.20;;;;;;;25.74;41.00;95970.41;5026557;28;20414;-63
2022/12/28 09:41:51;;;;;;;5.53;3.72;;;;;;;25.52;40.96;95923.94;5047753;28;20156;-65
2022/12/28 09:44:29;;;;;;;4.80;3.20;;;;;;;25.82;40.62;95972.88;5043779;28;20021;-65
2022/12/28 09:47:06;;;;;;;4.65;3.25;;;;;;;25.66;40.88;95929.13;5041650;28;20049;-64
2022/12/28 09:49:41;;;;;;;6.57;3.65;;;;;;;25.06;41.16;95849.97;5024681;28;20107;-66
2022/12/28 09:52:12;;;;;;;5.30;3.28;;;;;;;25.83;40.77;95943.53;5007209;28;20472;-65
2022/12/28 09:54:38;;;;;;;5.28;3.25;;;;;;;26.11;40.51;95939.41;5061654;28;20106;-61
2022/12/28 09:57:03;;;;;;;5.32;3.45;;;;;;;25.43;40.51;95855.84;5063125;28;20097;-68
2022/12/28 09:59:30;;;;;;;5.43;3.42;;;;;;;26.11;40.40;95930.47;5055699;28;20532;-62
2022/12/28 10:01:57;;;;;;;5.10;2.97;;;;;;;26.07;40.79;95930.72;5043703;28;20152;-67
2022/12/28 10:04:23;;;;;;;4.65;3.15;;;;;;;25.99;40.55;95929.78;5046486;28;20196;-62
2022/12/28 10:06:48;;;;;;;6.00;3.45;;;;;;;26.19;40.08;95915.75;5064245;28;20060;-67
2022/12/28 10:09:24;;;;;;;5.40;3.40;;;;;;;24.98;40.31;95734.19;5063533;28;20047;-61
2022/12/28 10:11:49;;;;;;;4.43;3.15;;;;;;;25.99;40.61;95915.34;5046023;28;20692;-62
2022/12/28 10:14:21;;;;;;;4.57;3.40;;;;;;;26.00;40.57;95909.34;5064235;28;20029;-65
2022/12/28 10:16:46;;;;;;;5.57;3.25;;;;;;;26.06;40.01;95890.91;5045830;28;20039;-64
2022/12/28 10:19:17;;;;;;;5.82;3.10;;;;;;;26.06;40.49;95890.91;5046443;28;20037;-61
2022/12/28 10:21:42;;;;;;;5.82;3.63;;;;;;;26.13;40.83;95915.03;5045619;28;20079;-64
2022/12/28 10:24:09;;;;;;;5.75;3.67;;;;;;;25.70;40.35;95835.88;5029632;28;20421;-66
2022/12/28 10:26:35;;;;;;;15.48;5.18;;;;;;;25.07;40.79;95731.22;5028819;28;20104;-62
2022/12/28 10:29:00;;;;;;;25.20;9.00;;;;;;;26.32;40.98;95918.66;5044838;28;20039;-62
2022/12/28 10:31:34;;;;;;;67.20;25.90;;;;;;;26.30;41.26;95900.00;5045381;28;20048;-65
2022/12/28 10:33:59;;;;;;;94.30;34.35;;;;;;;25.37;42.31;95808.63;5046429;28;20052;-63
2022/12/28 10:36:27;;;;;;;99.50;38.80;;;;;;;26.05;42.81;95900.38;5046515;28;20045;-65
2022/12/28 10:38:53;;;;;;;111.90;40.20;;;;;;;25.87;40.52;95906.44;5046456;28;20460;-62
2022/12/28 10:41:19;;;;;;;108.20;40.25;;;;;;;25.91;43.03;95906.91;5030405;28;20072;-64
2022/12/28 10:43:50;;;;;;;117.43;39.50;;;;;;;24.97;44.23;95820.13;5046018;28;20618;-67
2022/12/28 10:46:17;;;;;;;97.05;38.83;;;;;;;25.43;44.41;95891.41;5031951;28;20044;-67
2022/12/28 10:48:46;;;;;;;97.38;38.42;;;;;;;25.24;44.95;95898.63;5032894;28;20041;-67
2022/12/28 10:51:22;;;;;;;82.57;34.17;;;;;;;25.18;45.24;95895.16;5031619;28;20039;-66
2022/12/28 10:53:50;;;;;;;85.47;33.65;;;;;;;24.31;45.41;95785.94;5061247;28;20040;-66
2022/12/28 10:56:31;;;;;;;76.95;29.98;;;;;;;25.36;44.47;95905.56;5062841;28;20579;-64
2022/12/28 10:59:09;;;;;;;82.30;30.30;;;;;;;25.42;44.46;95898.09;5043289;28;20048;-66
2022/12/28 11:01:34;;;;;;;76.35;27.80;;;;;;;25.00;44.42;95802.03;5014722;28;20041;-63
2022/12/28 11:03:59;;;;;;;71.22;27.10;;;;;;;25.34;44.98;95902.59;5057718;28;20053;-64
2022/12/28 11:06:27;;;;;;;68.13;26.77;;;;;;;24.93;44.19;95803.28;5069299;28;20052;-63
2022/12/28 11:09:11;;;;;;;68.78;25.98;;;;;;;25.03;45.50;95908.34;5061015;28;20041;-65
2022/12/28 11:11:36;;;;;;;65.60;24.75;;;;;;;24.94;45.45;95897.66;5045367;28;20033;-65
2022/12/28 11:14:05;;;;;;;62.47;23.42;;;;;;;25.40;44.82;95917.00;5048193;28;20515;-65
2022/12/28 11:16:34;;;;;;;52.97;23.00;;;;;;;24.87;44.30;95831.84;5030247;28;20056;-64
2022/12/28 11:18:59;;;;;;;60.05;22.02;;;;;;;24.65;45.08;95848.25;5046074;28;20186;-65
2022/12/28 11:21:24;;;;;;;51.92;21.65;;;;;;;24.88;45.21;95905.09;5046365;28;20044;-66
2022/12/28 11:23:50;;;;;;;50.50;21.92;;;;;;;24.91;45.23;95915.03;5046152;28;20036;-66
2022/12/28 11:26:16;;;;;;;45.55;19.55;;;;;;;24.55;45.11;95843.53;5027810;28;20041;-66
2022/12/28 11:28:43;;;;;;;48.08;19.40;;;;;;;24.80;45.68;95924.47;5062162;28;20048;-64
2022/12/28 11:31:15;;;;;;;47.15;18.55;;;;;;;24.85;45.01;95919.75;5028008;28;20663;-67
2022/12/28 11:33:44;;;;;;;44.92;18.52;;;;;;;24.77;45.00;95925.47;5033771;28;20082;-62
2022/12/28 11:36:17;;;;;;;48.30;17.98;;;;;;;24.85;44.67;95932.69;5028433;28;20055;-63
2022/12/28 11:38:46;;;;;;;41.40;17.67;;;;;;;24.71;44.82;95911.06;5041461;28;20032;-62
2022/12/28 11:41:32;;;;;;;37.17;16.93;;;;;;;24.95;44.62;95925.75;5009650;28;20033;-62
2022/12/28 11:44:00;;;;;;;39.08;16.58;;;;;;;24.78;45.10;95916.03;5041119;28;20693;-63
2022/12/28 11:46:25;;;;;;;35.63;17.23;;;;;;;24.83;45.07;95910.59;5042782;28;20068;-65
2022/12/28 11:49:09;;;;;;;36.92;16.73;;;;;;;24.84;44.76;95914.78;5058723;28;20370;-62
2022/12/28 11:51:35;;;;;;;38.05;15.43;;;;;;;24.98;44.53;95903.63;5062826;28;20995;-62
2022/12/28 11:54:40;;;;;;;33.03;15.43;;;;;;;24.93;44.49;95918.03;5043889;28;20476;-66
2022/12/28 11:57:06;;;;;;;37.53;15.93;;;;;;;24.73;45.19;95897.69;4979832;28;20050;-66
2022/12/28 11:59:35;;;;;;;37.00;15.20;;;;;;;24.69;44.86;95905.38;5016106;28;20040;-63
2022/12/28 12:02:07;;;;;;;34.10;14.37;;;;;;;24.66;45.18;95900.91;5045095;28;20032;-66
2022/12/28 12:04:41;;;;;;;30.95;13.95;;;;;;;24.88;44.69;95898.91;5062551;28;20341;-65
2022/12/28 12:07:23;;;;;;;32.05;13.73;;;;;;;24.93;44.51;95887.97;5041802;28;20048;-64